Time;durP1;ratioP1;P1;durP2;ratioP2;P2;SDS_P1;SDS_P2;PMS_P1;PMS_P2;Temp;Humidity;BMP_temperature;BMP_pressure;BME280_temperature;BME280_humidity;BME280_pressure;Samples;Min_cycle;Max_cycle;Signal;HPM_P1;HPM_P2
2021/09/17 00:03:34;;;;;;;8.75;7.95;;;;;;;17.01;91.77;99972.11;2859554;83;21014;-57
2021/09/17 00:07:36;;;;;;;12.57;7.23;;;;;;;16.85;91.91;99969.80;2859547;82;20971;-58
2021/09/17 00:11:40;;;;;;;9.23;7.92;;;;;;;16.67;92.13;99957.44;2858840;83;20939;-57
2021/09/17 00:15:43;;;;;;;10.48;8.15;;;;;;;16.51;92.66;99962.37;2859306;83;20975;-58
2021/09/17 00:19:45;;;;;;;13.08;7.60;;;;;;;16.42;92.85;99960.73;2859250;83;20956;-56
2021/09/17 00:23:47;;;;;;;9.58;7.90;;;;;;;16.34;92.96;99958.06;2859243;83;20983;-56
2021/09/17 00:27:49;;;;;;;12.05;9.58;;;;;;;16.28;92.82;99956.89;2859351;83;20975;-56
2021/09/17 00:31:51;;;;;;;9.75;8.28;;;;;;;16.23;93.09;99953.89;2859196;83;20951;-56
2021/09/17 00:35:58;;;;;;;13.72;9.55;;;;;;;16.16;93.10;99948.37;2859237;83;20964;-57
2021/09/17 00:40:00;;;;;;;12.88;8.60;;;;;;;16.13;93.18;99949.56;2859314;83;20952;-56
2021/09/17 00:44:03;;;;;;;11.43;9.60;;;;;;;16.08;93.32;99943.85;2859256;83;20979;-58
2021/09/17 00:48:05;;;;;;;14.87;10.32;;;;;;;16.07;93.30;99942.70;2859223;82;21018;-57
2021/09/17 00:52:07;;;;;;;12.55;10.15;;;;;;;16.02;93.39;99941.86;2859173;83;20940;-57
2021/09/17 00:56:11;;;;;;;10.00;8.80;;;;;;;15.96;93.65;99943.37;2859111;83;21002;-56
2021/09/17 01:00:31;;;;;;;14.53;10.30;;;;;;;15.94;93.82;99940.55;2859386;83;20979;-58
2021/09/17 01:04:33;;;;;;;10.72;9.63;;;;;;;15.91;94.03;99932.80;2859365;83;20948;-57
2021/09/17 01:08:36;;;;;;;10.03;9.00;;;;;;;15.89;94.28;99930.31;2859190;83;21040;-56
2021/09/17 01:12:40;;;;;;;11.20;9.55;;;;;;;15.83;94.56;99917.56;2858886;83;20947;-56
2021/09/17 01:16:42;;;;;;;15.48;10.60;;;;;;;15.79;94.54;99922.41;2834893;83;21019;-56
2021/09/17 01:21:17;;;;;;;11.65;8.15;;;;;;;15.75;94.79;99925.11;2859258;82;20991;-56
2021/09/17 01:25:22;;;;;;;14.25;8.55;;;;;;;15.76;95.56;99921.41;2859429;82;20972;-57
2021/09/17 01:29:25;;;;;;;;;;;;;;;15.81;96.19;99923.08;2836366;83;20983;-58
2021/09/17 01:34:16;;;;;;;13.68;9.85;;;;;;;15.90;96.36;99921.26;2859176;83;20093;-56
2021/09/17 01:38:17;;;;;;;10.43;7.33;;;;;;;15.97;96.28;99914.72;2858728;83;20948;-56
2021/09/17 01:42:28;;;;;;;11.05;9.25;;;;;;;16.05;96.22;99921.91;2859470;83;20983;-56
2021/09/17 01:46:31;;;;;;;10.53;7.40;;;;;;;16.06;96.27;99911.00;2859429;83;20999;-57
2021/09/17 01:50:36;;;;;;;11.18;7.08;;;;;;;16.16;96.09;99906.78;2859569;83;20983;-56
2021/09/17 01:54:37;;;;;;;6.50;5.87;;;;;;;16.23;95.97;99912.30;2859384;82;20955;-56
2021/09/17 01:58:43;;;;;;;11.85;8.00;;;;;;;16.31;95.93;99905.59;2859314;83;20990;-57
2021/09/17 02:02:44;;;;;;;11.65;7.12;;;;;;;16.39;95.73;99904.20;2859093;82;20979;-56
2021/09/17 02:07:00;;;;;;;8.10;6.17;;;;;;;16.47;95.28;99893.94;2859450;83;21042;-57
2021/09/17 02:11:03;;;;;;;14.00;6.28;;;;;;;16.55;95.04;99895.75;2833896;83;20987;-61
2021/09/17 02:15:11;;;;;;;8.65;6.42;;;;;;;16.59;94.51;99891.70;2835130;83;21046;-58
2021/09/17 02:19:17;;;;;;;7.78;6.50;;;;;;;16.63;94.48;99884.97;2858864;83;20948;-57
2021/09/17 02:23:18;;;;;;;6.97;6.10;;;;;;;16.66;94.14;99883.27;2859489;83;21015;-57
2021/09/17 02:27:21;;;;;;;9.85;8.03;;;;;;;16.67;94.14;99873.38;2859548;83;21010;-57
2021/09/17 02:31:25;;;;;;;7.87;6.30;;;;;;;16.66;94.10;99873.87;2859435;83;20987;-56
2021/09/17 02:35:27;;;;;;;6.80;5.47;;;;;;;16.67;94.19;99866.66;2859298;83;20968;-57
2021/09/17 02:39:29;;;;;;;8.85;7.75;;;;;;;16.68;94.13;99873.19;2859472;83;20987;-56
2021/09/17 02:43:31;;;;;;;8.15;5.60;;;;;;;16.72;94.13;99866.96;2859229;83;21003;-57
2021/09/17 02:47:33;;;;;;;8.95;6.42;;;;;;;16.73;94.04;99869.16;2859264;83;20975;-57
2021/09/17 02:51:35;;;;;;;9.25;6.70;;;;;;;16.75;93.90;99864.44;2859173;83;20992;-57
2021/09/17 02:55:36;;;;;;;10.75;7.17;;;;;;;16.76;93.89;99867.45;2859208;82;20905;-57
2021/09/17 02:59:39;;;;;;;8.48;6.95;;;;;;;16.77;93.93;99855.70;2859470;82;21007;-57
2021/09/17 03:03:49;;;;;;;6.85;5.97;;;;;;;16.76;93.74;99856.19;2859342;83;20955;-59
2021/09/17 03:07:51;;;;;;;8.00;6.20;;;;;;;16.74;93.79;99852.84;2859454;83;20947;-58
2021/09/17 03:11:53;;;;;;;10.78;7.95;;;;;;;16.70;93.83;99852.39;2859326;83;20999;-57
2021/09/17 03:15:55;;;;;;;13.95;8.53;;;;;;;16.70;94.04;99854.22;2859208;83;20976;-57
2021/09/17 03:20:36;;;;;;;12.63;7.10;;;;;;;16.69;94.04;99857.40;2859338;82;20963;-57
2021/09/17 03:24:40;;;;;;;8.38;6.15;;;;;;;16.67;94.00;99852.72;2859383;83;20947;-57
2021/09/17 03:28:44;;;;;;;8.60;7.30;;;;;;;16.67;94.09;99848.69;2833777;83;20987;-59
2021/09/17 03:32:47;;;;;;;10.13;7.65;;;;;;;16.65;94.09;99853.40;2859384;83;20968;-59
2021/09/17 03:37:09;;;;;;;8.45;7.28;;;;;;;16.67;93.96;99846.00;2859256;83;20948;-55
2021/09/17 03:41:11;;;;;;;9.13;6.25;;;;;;;16.66;94.10;99847.54;2859236;83;20979;-57
2021/09/17 03:45:56;;;;;;;14.40;6.80;;;;;;;16.66;94.04;99847.02;2859324;83;20984;-56
2021/09/17 03:49:58;;;;;;;7.58;6.20;;;;;;;16.66;94.03;99840.83;2859484;83;20912;-59
2021/09/17 03:54:00;;;;;;;11.05;8.08;;;;;;;16.63;93.88;99843.34;2859399;83;21014;-57
2021/09/17 03:58:04;;;;;;;9.98;6.25;;;;;;;16.58;94.00;99839.02;2859312;83;21004;-56
2021/09/17 04:02:06;;;;;;;9.75;6.60;;;;;;;16.53;94.22;99832.83;2859347;83;20991;-58
2021/09/17 04:06:08;;;;;;;9.35;6.67;;;;;;;16.50;94.45;99839.05;2859225;83;20971;-57
2021/09/17 04:10:14;;;;;;;7.97;7.00;;;;;;;16.46;94.81;99833.70;2859402;83;20963;-57
2021/09/17 04:14:16;;;;;;;11.38;7.03;;;;;;;16.44;95.02;99838.41;2859402;83;20967;-57
2021/09/17 04:18:19;;;;;;;11.30;8.58;;;;;;;16.44;95.15;99842.44;2859072;83;20995;-58
2021/09/17 04:22:32;;;;;;;13.40;9.30;;;;;;;16.46;95.24;99839.07;2859289;83;21002;-57
2021/09/17 04:26:34;;;;;;;8.55;7.60;;;;;;;16.52;95.40;99839.20;2859248;83;21034;-59
2021/09/17 04:30:40;;;;;;;11.40;9.25;;;;;;;16.58;95.38;99836.34;2859415;83;20983;-58
2021/09/17 04:34:46;;;;;;;10.18;9.13;;;;;;;16.63;94.96;99843.34;2859297;83;20951;-60
2021/09/17 04:39:02;;;;;;;10.05;9.00;;;;;;;16.65;94.61;99837.81;2859432;83;21003;-57
2021/09/17 04:43:04;;;;;;;9.08;8.18;;;;;;;16.67;94.74;99844.66;2859403;83;21007;-55
2021/09/17 04:47:07;;;;;;;13.45;10.25;;;;;;;16.70;94.42;99847.02;2833438;83;20983;-57
2021/09/17 04:51:09;;;;;;;15.38;10.40;;;;;;;16.73;94.40;99842.30;2859308;83;20971;-56
2021/09/17 04:55:17;;;;;;;13.25;10.80;;;;;;;16.72;94.49;99840.63;2859225;83;20956;-57
2021/09/17 04:59:19;;;;;;;10.98;9.45;;;;;;;16.70;94.45;99844.33;2859151;83;21003;-57
2021/09/17 05:03:50;;;;;;;12.15;7.58;;;;;;;16.68;94.68;99844.98;2859308;83;21019;-57
2021/09/17 05:07:53;;;;;;;14.25;8.60;;;;;;;16.72;94.80;99846.00;2859221;83;20995;-57
2021/09/17 05:12:08;;;;;;;14.18;9.08;;;;;;;16.72;94.83;99844.66;2859543;83;20940;-58
2021/09/17 05:16:10;;;;;;;10.85;7.50;;;;;;;16.76;94.89;99848.13;2859508;83;20944;-57
2021/09/17 05:20:13;;;;;;;10.85;7.97;;;;;;;16.83;94.62;99849.61;2859505;82;20975;-57
2021/09/17 05:24:15;;;;;;;8.13;6.35;;;;;;;16.89;94.54;99851.58;2859606;83;20960;-57
2021/09/17 05:28:17;;;;;;;10.32;7.97;;;;;;;16.92;94.05;99860.64;2859384;83;20983;-56
2021/09/17 05:32:21;;;;;;;7.92;7.15;;;;;;;16.97;94.37;99858.25;2859487;83;20963;-58
2021/09/17 05:36:23;;;;;;;10.63;8.40;;;;;;;17.04;94.07;99856.22;2859444;83;21018;-56
2021/09/17 05:40:25;;;;;;;9.78;8.78;;;;;;;17.10;94.12;99851.49;2859519;83;21014;-57
2021/09/17 05:44:34;;;;;;;10.93;9.65;;;;;;;17.17;93.72;99854.27;2859530;83;21038;-56
2021/09/17 05:48:36;;;;;;;10.05;8.95;;;;;;;17.21;93.52;99860.98;2859345;83;21063;-56
2021/09/17 05:52:39;;;;;;;18.50;10.50;;;;;;;17.24;93.33;99851.21;2859515;83;21038;-57
2021/09/17 05:56:49;;;;;;;13.15;9.73;;;;;;;17.22;92.89;99858.63;2859541;82;20971;-56
2021/09/17 06:00:51;;;;;;;12.98;9.20;;;;;;;17.21;92.96;99855.09;2859357;83;20991;-56
2021/09/17 06:04:55;;;;;;;17.98;11.48;;;;;;;17.21;93.10;99860.45;2859352;83;20968;-57
2021/09/17 06:08:57;;;;;;;11.73;10.32;;;;;;;17.21;92.97;99863.15;2859420;83;21023;-57
2021/09/17 06:12:59;;;;;;;11.73;10.15;;;;;;;17.24;93.31;99868.16;2859405;83;20944;-56
2021/09/17 06:17:02;;;;;;;11.95;9.45;;;;;;;17.27;93.11;99858.39;2859392;83;21003;-58
2021/09/17 06:21:16;;;;;;;13.50;8.30;;;;;;;17.25;92.47;99849.67;2859398;83;21007;-57
2021/09/17 06:29:29;;;;;;;12.47;10.00;;;;;;;17.27;92.65;99848.98;2877519;80;21105;-58
2021/09/17 06:33:31;;;;;;;10.35;7.95;;;;;;;17.27;92.60;99848.16;2878723;80;20939;-59
2021/09/17 06:37:37;;;;;;;7.72;6.92;;;;;;;17.31;92.51;99857.53;2878532;80;20914;-57
2021/09/17 06:41:39;;;;;;;9.43;7.72;;;;;;;17.33;91.72;99843.39;2878171;80;20966;-57
2021/09/17 06:45:42;;;;;;;8.88;6.78;;;;;;;17.37;91.63;99847.91;2878219;81;20978;-58
2021/09/17 06:49:50;;;;;;;9.48;6.55;;;;;;;17.39;91.31;99845.88;2847815;81;20948;-60
2021/09/17 06:53:53;;;;;;;6.72;5.97;;;;;;;17.44;91.53;99842.65;2829259;84;20988;-57
2021/09/17 06:57:59;;;;;;;6.87;5.50;;;;;;;17.47;91.17;99849.82;2829219;84;20960;-56
2021/09/17 07:02:02;;;;;;;5.62;5.03;;;;;;;17.55;90.94;99844.88;2828441;84;20953;-57
2021/09/17 07:06:04;;;;;;;10.63;4.72;;;;;;;17.62;90.91;99847.19;2829165;81;20945;-57
2021/09/17 07:10:12;;;;;;;6.50;5.92;;;;;;;17.66;90.38;99843.10;2829170;84;20944;-57
2021/09/17 07:14:14;;;;;;;11.45;6.87;;;;;;;17.68;89.98;99845.09;2829133;81;20949;-57
2021/09/17 07:18:16;;;;;;;7.55;6.85;;;;;;;17.75;90.72;99847.89;2829128;84;20960;-57
2021/09/17 07:22:20;;;;;;;8.98;7.65;;;;;;;17.82;89.96;99840.75;2829022;84;20894;-56
2021/09/17 07:26:23;;;;;;;6.87;6.17;;;;;;;17.88;89.31;99839.67;2829054;84;20992;-60
2021/09/17 07:30:25;;;;;;;6.87;5.62;;;;;;;17.91;88.79;99839.33;2829019;84;20941;-58
2021/09/17 07:34:28;;;;;;;6.25;5.42;;;;;;;18.01;88.62;99841.75;2829117;84;21009;-60
2021/09/17 07:38:48;;;;;;;28.77;8.58;;;;;;;18.05;88.86;99838.51;2828938;81;21000;-60
2021/09/17 07:42:50;;;;;;;10.00;7.20;;;;;;;18.07;87.88;99840.50;2829226;84;20929;-57
2021/09/17 07:46:52;;;;;;;12.33;7.42;;;;;;;18.16;88.41;99841.23;2829120;84;21395;-59
2021/09/17 07:50:54;;;;;;;14.55;6.15;;;;;;;18.29;87.46;99847.83;2829105;84;21063;-57
2021/09/17 07:55:53;;;;;;;9.35;7.17;;;;;;;18.19;86.48;99847.63;2839593;81;21003;-57
2021/09/17 07:59:55;;;;;;;7.55;5.50;;;;;;;18.17;86.48;99848.81;2854099;83;20986;-57
2021/09/17 08:04:01;;;;;;;10.45;5.25;;;;;;;18.21;87.32;99859.03;2854075;81;20987;-56
2021/09/17 08:08:04;;;;;;;11.15;6.60;;;;;;;18.24;86.49;99855.97;2854178;81;20963;-60
2021/09/17 08:12:08;;;;;;;5.15;4.25;;;;;;;18.29;86.16;99854.06;2853934;81;21046;-57
2021/09/17 08:16:10;;;;;;;4.10;3.80;;;;;;;18.32;86.33;99846.95;2853948;82;20971;-59
2021/09/17 08:20:23;;;;;;;5.15;4.65;;;;;;;18.31;85.60;99849.33;2854017;83;20955;-57
2021/09/17 08:24:25;;;;;;;7.05;4.28;;;;;;;18.31;85.44;99857.40;2853959;83;20963;-57
2021/09/17 08:29:21;;;;;;;6.47;4.17;;;;;;;18.34;85.63;99854.33;2854186;81;20900;-60
2021/09/17 08:33:24;;;;;;;12.47;4.58;;;;;;;18.46;85.74;99850.64;2854234;81;20924;-57
2021/09/17 08:37:48;;;;;;;5.28;4.00;;;;;;;18.54;84.43;99853.74;2854051;81;20927;-60
2021/09/17 08:41:50;;;;;;;5.65;4.25;;;;;;;18.68;84.46;99846.15;2853829;81;21014;-59
2021/09/17 08:45:52;;;;;;;4.75;3.35;;;;;;;18.88;83.22;99850.07;2854332;83;20987;-58
2021/09/17 08:50:36;;;;;;;5.45;2.40;;;;;;;19.01;83.17;99861.03;2854328;81;20987;-56
2021/09/17 08:54:40;;;;;;;5.00;2.65;;;;;;;19.19;80.90;99849.78;2854415;82;20971;-56
2021/09/17 08:58:47;;;;;;;4.58;2.27;;;;;;;19.31;79.57;99848.74;2854524;81;20996;-56
2021/09/17 09:02:50;;;;;;;3.37;2.90;;;;;;;19.40;78.69;99855.69;2853723;83;20948;-57
2021/09/17 09:07:05;;;;;;;3.22;2.80;;;;;;;19.58;80.79;99841.39;2854284;83;20943;-57
2021/09/17 09:11:20;;;;;;;1.92;1.60;;;;;;;19.78;80.17;99843.71;2862493;83;20993;-57
2021/09/17 09:15:30;;;;;;;1.70;1.50;;;;;;;19.84;76.49;99846.95;2877861;83;20990;-57
2021/09/17 09:19:37;;;;;;;3.17;1.85;;;;;;;19.79;76.26;99841.86;2835438;82;20985;-56
2021/09/17 09:23:43;;;;;;;3.72;2.87;;;;;;;19.76;76.39;99841.73;2827474;82;21014;-57
2021/09/17 09:27:47;;;;;;;2.37;2.17;;;;;;;19.89;77.00;99833.41;2826972;84;20965;-58
2021/09/17 09:31:49;;;;;;;2.40;2.10;;;;;;;20.00;76.15;99828.82;2827359;84;20954;-57
2021/09/17 09:36:01;;;;;;;2.80;2.37;;;;;;;20.17;75.74;99813.14;2827315;82;20951;-57
2021/09/17 09:45:21;;;;;;;2.60;1.92;;;;;;;20.51;75.12;99825.42;2827473;84;20990;-57
2021/09/17 09:49:25;;;;;;;3.83;1.92;;;;;;;20.43;73.16;99814.78;2827022;84;20942;-59
2021/09/17 09:53:27;;;;;;;4.83;2.45;;;;;;;20.45;73.43;99810.03;2827446;82;20947;-58
2021/09/17 09:57:32;;;;;;;1.87;1.70;;;;;;;20.34;73.95;99813.62;2827348;84;20990;-57
2021/09/17 10:01:39;;;;;;;3.80;2.72;;;;;;;20.31;73.97;99807.77;2827582;82;21468;-56
2021/09/17 10:05:41;;;;;;;1.47;1.35;;;;;;;20.22;73.72;99813.87;2827545;82;20954;-58
2021/09/17 10:09:44;;;;;;;2.87;1.67;;;;;;;20.15;73.39;99799.02;2827367;82;21025;-58
2021/09/17 10:14:08;;;;;;;6.58;4.10;;;;;;;19.97;72.73;99811.17;2827448;82;21006;-58
2021/09/17 10:18:10;;;;;;;4.67;3.98;;;;;;;19.79;72.32;99821.62;2826812;84;20939;-57
2021/09/17 10:22:33;;;;;;;1.22;1.12;;;;;;;19.69;75.00;99819.28;2827330;82;20918;-57
2021/09/17 10:26:40;;;;;;;1.30;1.20;;;;;;;19.54;74.32;99808.07;2827376;84;20950;-57
2021/09/17 10:30:42;;;;;;;17.62;3.52;;;;;;;19.21;76.14;99830.73;2821090;84;20958;-56
2021/09/17 10:35:31;;;;;;;1.27;1.00;;;;;;;18.96;77.51;99835.96;2827097;84;20966;-59
2021/09/17 10:39:35;;;;;;;1.02;0.80;;;;;;;18.95;77.95;99831.59;2826999;84;21014;-59
2021/09/17 10:43:57;;;;;;;3.00;0.70;;;;;;;19.08;75.67;99822.02;2826980;84;21013;-57
2021/09/17 10:47:59;;;;;;;11.43;1.75;;;;;;;19.18;74.36;99829.24;2826745;84;20947;-56
2021/09/17 10:52:38;;;;;;;1.07;0.30;;;;;;;19.27;74.38;99824.55;2827016;84;20950;-57
2021/09/17 10:57:08;;;;;;;2.47;1.10;;;;;;;19.46;73.16;99805.53;2826998;84;20919;-57
2021/09/17 11:01:15;;;;;;;0.93;0.88;;;;;;;19.69;71.64;99802.56;2827069;84;21002;-57
2021/09/17 11:05:30;;;;;;;0.47;0.42;;;;;;;19.86;72.94;99820.32;2826975;84;20915;-56
2021/09/17 11:09:53;;;;;;;3.72;1.05;;;;;;;20.02;73.29;99808.39;2826960;82;20961;-57
2021/09/17 11:13:59;;;;;;;1.70;1.60;;;;;;;20.10;72.49;99815.80;2826846;83;20962;-58
2021/09/17 11:18:08;;;;;;;2.70;2.50;;;;;;;20.05;70.88;99798.03;2826771;83;20971;-60
2021/09/17 11:22:06;;;;;;;2.10;1.65;;;;;;;19.98;70.09;99805.24;2826233;84;20962;-56
2021/09/17 11:26:34;;;;;;;2.98;1.50;;;;;;;19.71;70.80;99806.42;2826946;84;20982;-57
2021/09/17 11:30:37;;;;;;;1.92;1.82;;;;;;;19.70;71.56;99800.70;2827005;83;20974;-57
2021/09/17 11:34:39;;;;;;;3.37;2.87;;;;;;;19.76;71.28;99812.58;2868023;83;20991;-57
2021/09/17 11:38:41;;;;;;;2.60;2.17;;;;;;;19.88;71.44;99799.36;2868223;83;21541;-58
2021/09/17 11:42:43;;;;;;;12.18;4.00;;;;;;;19.89;71.74;99794.28;2868072;83;20979;-60
2021/09/17 11:46:45;;;;;;;1.55;0.98;;;;;;;19.91;72.30;99798.45;2868171;83;21006;-60
2021/09/17 11:50:47;;;;;;;1.40;0.80;;;;;;;19.17;75.86;99796.58;2868216;83;21022;-57
2021/09/17 11:55:10;;;;;;;1.35;0.98;;;;;;;18.26;83.02;99815.38;2868073;83;20979;-56
2021/09/17 11:59:17;;;;;;;2.20;1.05;;;;;;;17.63;87.93;99817.92;2868088;83;20991;-57
2021/09/17 12:03:20;;;;;;;1.10;0.60;;;;;;;17.18;88.95;99842.50;2861698;83;21026;-57
2021/09/17 12:07:27;;;;;;;0.60;0.45;;;;;;;17.08;91.51;99840.06;2868036;83;20986;-58
2021/09/17 12:11:28;;;;;;;2.05;0.40;;;;;;;17.06;92.14;99846.97;2843498;83;20971;-61
2021/09/17 12:15:51;;;;;;;4.45;0.75;;;;;;;17.22;93.51;99834.44;2867969;83;20963;-58
2021/09/17 12:20:12;;;;;;;0.75;0.75;;;;;;;17.44;93.09;99843.47;2867827;83;20924;-58
2021/09/17 12:24:18;;;;;;;1.20;0.45;;;;;;;17.72;93.38;99843.38;2867826;83;20980;-56
2021/09/17 12:28:24;;;;;;;1.50;1.02;;;;;;;17.93;91.26;99834.59;2868136;83;20979;-57
2021/09/17 12:32:26;;;;;;;1.07;0.75;;;;;;;18.01;90.13;99822.38;2868206;83;20979;-60
2021/09/17 12:36:30;;;;;;;1.00;0.80;;;;;;;18.05;89.24;99839.85;2867968;83;21041;-60
2021/09/17 12:40:41;;;;;;;1.00;0.70;;;;;;;17.94;87.61;99834.92;2868165;83;20974;-57
2021/09/17 12:44:47;;;;;;;2.47;1.05;;;;;;;17.72;88.30;99844.23;2866655;81;20951;-58
2021/09/17 12:48:51;;;;;;;2.67;1.17;;;;;;;17.71;90.18;99835.84;2856718;83;21032;-58
2021/09/17 12:53:21;;;;;;;2.20;2.00;;;;;;;17.83;89.54;99830.31;2828927;84;21018;-57
2021/09/17 12:57:23;;;;;;;1.47;1.35;;;;;;;17.93;88.17;99825.18;2828979;84;20963;-58
2021/09/17 13:01:30;;;;;;;2.00;1.72;;;;;;;18.20;87.17;99823.72;2829206;83;20959;-59
2021/09/17 13:05:36;;;;;;;2.80;1.35;;;;;;;18.56;87.28;99826.11;2829191;83;20956;-59
2021/09/17 13:09:38;;;;;;;1.65;1.22;;;;;;;18.82;82.80;99823.37;2829459;83;20958;-56
2021/09/17 13:13:40;;;;;;;4.67;1.00;;;;;;;18.93;80.56;99820.18;2831380;82;20951;-60
2021/09/17 13:17:42;;;;;;;3.40;1.35;;;;;;;19.01;80.32;99822.45;2863521;81;21029;-58
2021/09/17 13:21:43;;;;;;;1.60;1.30;;;;;;;19.08;80.46;99822.02;2878110;81;20958;-58
2021/09/17 13:25:48;;;;;;;1.87;1.42;;;;;;;19.13;78.96;99819.56;2877966;83;21009;-56
2021/09/17 13:29:49;;;;;;;1.70;1.60;;;;;;;19.11;78.49;99829.18;2877947;83;20997;-56
2021/09/17 13:34:20;;;;;;;1.87;1.50;;;;;;;19.19;77.64;99816.61;2878349;81;20966;-56
2021/09/17 13:38:23;;;;;;;6.37;1.85;;;;;;;19.33;77.84;99810.81;2878208;81;20979;-59
2021/09/17 13:47:13;;;;;;;3.20;2.12;;;;;;;19.38;76.18;99806.51;2878382;81;21034;-56
2021/09/17 13:51:15;;;;;;;1.87;1.65;;;;;;;19.36;76.78;99814.46;2862930;80;20946;-56
2021/09/17 13:55:21;;;;;;;1.70;1.40;;;;;;;19.37;76.82;99816.98;2827228;84;20978;-58
2021/09/17 13:59:42;;;;;;;6.17;2.02;;;;;;;19.32;77.27;99822.62;2827136;84;20949;-57
2021/09/17 14:03:44;;;;;;;2.67;2.10;;;;;;;19.29;76.63;99823.84;2827389;84;20986;-57
2021/09/17 14:07:46;;;;;;;1.57;1.47;;;;;;;19.22;76.86;99823.78;2827221;84;21017;-57
2021/09/17 14:11:50;;;;;;;4.45;1.77;;;;;;;19.12;77.05;99823.29;2827128;84;21018;-56
2021/09/17 14:15:51;;;;;;;3.70;1.52;;;;;;;19.05;77.87;99821.03;2827205;84;20939;-57
2021/09/17 14:19:53;;;;;;;1.72;1.47;;;;;;;18.98;78.18;99827.20;2827093;83;20997;-55
2021/09/17 14:23:56;;;;;;;2.30;1.50;;;;;;;18.94;77.80;99817.80;2827308;84;20954;-56
2021/09/17 14:28:00;;;;;;;0.80;0.80;;;;;;;18.91;78.24;99834.86;2827250;84;21006;-57
2021/09/17 14:32:03;;;;;;;1.07;0.90;;;;;;;18.76;76.60;99826.84;2827400;84;21026;-57
2021/09/17 14:36:06;;;;;;;0.85;0.60;;;;;;;18.40;75.49;99834.72;2826892;84;20993;-57
2021/09/17 14:40:09;;;;;;;1.70;0.68;;;;;;;18.09;75.46;99826.37;2827193;84;20958;-56
2021/09/17 14:44:11;;;;;;;0.70;0.50;;;;;;;17.99;77.03;99821.73;2827340;84;21014;-56
2021/09/17 14:48:13;;;;;;;10.93;1.22;;;;;;;17.98;76.97;99817.37;2827210;84;20939;-57
2021/09/17 14:52:27;;;;;;;2.50;1.17;;;;;;;18.01;77.03;99823.73;2827373;83;20954;-58
2021/09/17 14:56:29;;;;;;;2.60;0.85;;;;;;;18.03;77.29;99820.37;2827324;84;20970;-58
2021/09/17 15:00:31;;;;;;;1.45;0.93;;;;;;;18.16;77.40;99822.92;2827320;84;21020;-57
2021/09/17 15:04:42;;;;;;;7.70;4.97;;;;;;;18.27;76.80;99826.47;2827258;84;20958;-57
2021/09/17 15:08:44;;;;;;;11.08;5.33;;;;;;;18.27;76.49;99818.39;2827169;83;20959;-59
2021/09/17 15:12:46;;;;;;;7.00;4.50;;;;;;;18.24;77.06;99810.70;2827019;84;23517;-57
2021/09/17 15:16:54;;;;;;;6.83;3.20;;;;;;;18.22;77.60;99815.44;2827189;84;21066;-56
2021/09/17 15:20:56;;;;;;;3.47;2.20;;;;;;;18.22;78.02;99819.47;2827093;84;20938;-57
2021/09/17 15:24:58;;;;;;;3.40;2.00;;;;;;;18.23;78.55;99830.06;2827150;84;20951;-56
2021/09/17 15:29:00;;;;;;;3.85;1.92;;;;;;;18.23;78.56;99826.03;2827063;84;21065;-56
2021/09/17 15:33:03;;;;;;;1.67;1.30;;;;;;;18.22;78.74;99819.47;2827287;84;20977;-57
2021/09/17 15:37:06;;;;;;;1.50;0.90;;;;;;;18.24;79.01;99829.54;2827179;84;21005;-57
2021/09/17 15:41:14;;;;;;;5.40;1.30;;;;;;;18.23;78.78;99837.30;2749920;85;20992;-56
2021/09/17 15:45:55;;;;;;;2.80;1.07;;;;;;;18.23;78.34;99826.52;2876937;82;21006;-57
2021/09/17 15:49:57;;;;;;;2.87;1.62;;;;;;;18.23;77.72;99830.56;2877691;83;21013;-56
2021/09/17 15:54:02;;;;;;;1.92;1.02;;;;;;;18.25;78.10;99832.55;2878290;83;21001;-56
2021/09/17 15:58:03;;;;;;;3.60;1.92;;;;;;;18.21;78.46;99834.80;2878065;83;20981;-59
2021/09/17 16:02:06;;;;;;;5.72;1.92;;;;;;;18.17;78.33;99839.40;2878071;82;20978;-57
2021/09/17 16:06:08;;;;;;;2.45;1.40;;;;;;;18.12;78.55;99843.48;2878341;83;20934;-57
2021/09/17 16:10:11;;;;;;;0.70;0.60;;;;;;;18.12;77.85;99846.18;2878075;81;21468;-56
2021/09/17 16:14:13;;;;;;;1.82;0.90;;;;;;;18.10;77.06;99837.45;2878205;83;20922;-56
2021/09/17 16:18:27;;;;;;;1.45;1.30;;;;;;;18.08;77.23;99842.20;2878161;83;20954;-57
2021/09/17 16:22:29;;;;;;;1.05;0.80;;;;;;;18.05;77.49;99834.47;2878104;81;20970;-58
2021/09/17 16:26:33;;;;;;;1.52;1.22;;;;;;;17.99;78.32;99840.57;2878254;83;21006;-57
2021/09/17 16:30:35;;;;;;;5.15;1.20;;;;;;;17.95;78.99;99839.28;2878070;83;20970;-56
2021/09/17 16:34:58;;;;;;;1.45;0.60;;;;;;;17.89;79.84;99840.03;2877954;83;20977;-56
2021/09/17 16:39:04;;;;;;;1.20;0.67;;;;;;;17.82;77.07;99839.92;2878251;83;20951;-60
2021/09/17 16:43:07;;;;;;;2.27;1.05;;;;;;;17.76;76.37;99840.64;2877650;83;20982;-57
2021/09/17 16:47:11;;;;;;;1.98;1.02;;;;;;;17.68;76.26;99841.56;2877985;83;21005;-57
2021/09/17 16:51:13;;;;;;;6.00;1.90;;;;;;;17.61;76.32;99848.20;2878089;82;20988;-56
2021/09/17 16:55:17;;;;;;;1.22;0.85;;;;;;;17.58;76.63;99849.07;2878047;83;20946;-57
2021/09/17 16:59:20;;;;;;;2.47;1.42;;;;;;;17.55;76.93;99851.11;2878080;82;20978;-56
2021/09/17 17:03:24;;;;;;;1.95;1.82;;;;;;;17.51;77.28;99854.34;2878092;82;21052;-59
2021/09/17 17:07:26;;;;;;;2.80;1.50;;;;;;;17.47;77.26;99853.85;2878312;83;20931;-57
2021/09/17 17:11:33;;;;;;;3.62;1.98;;;;;;;17.43;77.84;99856.59;2853380;83;20962;-57
2021/09/17 17:15:37;;;;;;;2.50;2.17;;;;;;;17.36;78.31;99865.06;2877736;83;21030;-57
2021/09/17 17:19:39;;;;;;;7.83;4.65;;;;;;;17.31;78.75;99866.11;2874485;83;20947;-57
2021/09/17 17:23:41;;;;;;;9.65;7.58;;;;;;;17.26;78.99;99862.09;2849979;83;20979;-57
2021/09/17 17:28:19;;;;;;;6.65;3.65;;;;;;;17.26;79.07;99866.13;2850083;83;21026;-56
2021/09/17 17:32:22;;;;;;;7.42;3.67;;;;;;;17.25;79.11;99868.48;2850095;83;20963;-56
2021/09/17 17:36:26;;;;;;;5.30;2.92;;;;;;;17.23;79.33;99868.36;2850719;82;20995;-60
2021/09/17 17:40:28;;;;;;;4.53;3.08;;;;;;;17.17;80.09;99864.53;2829730;84;20970;-59
2021/09/17 17:44:31;;;;;;;3.27;2.98;;;;;;;17.09;80.77;99864.08;2829535;84;21029;-60
2021/09/17 17:48:33;;;;;;;5.55;1.95;;;;;;;17.03;81.43;99859.92;2789236;85;21045;-62
2021/09/17 17:52:35;;;;;;;4.45;2.52;;;;;;;16.98;81.70;99868.48;2829330;84;20990;-57
2021/09/17 18:00:50;;;;;;;4.03;2.12;;;;;;;16.95;82.25;99873.72;2876258;82;21105;-78
2021/09/17 18:04:52;;;;;;;5.60;1.75;;;;;;;16.93;81.70;99878.44;2876892;82;21049;-79
2021/09/17 18:21:25;;;;;;;2.55;2.15;;;;;;;17.05;79.71;99899.05;2856634;80;21026;-56
2021/09/17 18:25:43;;;;;;;5.58;2.15;;;;;;;17.05;79.41;99910.28;2857531;83;20990;-61
2021/09/17 18:29:45;;;;;;;1.75;1.20;;;;;;;17.05;79.34;99908.94;2820630;83;21037;-58
2021/09/17 18:33:48;;;;;;;3.37;1.77;;;;;;;17.07;79.16;99907.76;2857031;83;20978;-58
2021/09/17 18:37:50;;;;;;;1.05;1.05;;;;;;;17.06;79.12;99907.43;2857449;83;20987;-57
2021/09/17 18:41:54;;;;;;;2.30;1.37;;;;;;;17.04;79.11;99905.43;2795177;84;21002;-57
2021/09/17 18:45:57;;;;;;;2.20;1.40;;;;;;;17.02;79.29;99903.44;2820733;84;21004;-58
2021/09/17 18:50:08;;;;;;;2.90;1.50;;;;;;;17.01;79.45;99910.31;2857843;83;20936;-58
2021/09/17 18:58:20;;;;;;;3.08;0.85;;;;;;;16.94;79.37;99909.66;2862595;83;21046;-65
2021/09/17 19:02:24;;;;;;;0.82;0.70;;;;;;;16.92;79.42;99909.00;2860448;83;20996;-65
2021/09/17 19:06:28;;;;;;;3.62;1.00;;;;;;;16.92;79.47;99913.03;2850439;83;20985;-65
2021/09/17 19:10:30;;;;;;;2.55;0.95;;;;;;;16.87;79.60;99915.39;2815018;84;21016;-65
2021/09/17 19:14:36;;;;;;;5.53;1.55;;;;;;;16.83;80.21;99911.39;2849391;83;20998;-65
2021/09/17 19:18:38;;;;;;;;;;;;;;;16.81;80.31;99908.89;2865650;83;20990;-65
2021/09/17 19:22:41;;;;;;;15.63;2.95;;;;;;;16.78;80.18;99913.77;2863135;83;20107;-65
2021/09/17 19:26:49;;;;;;;2.35;1.10;;;;;;;16.75;80.20;99908.23;2863131;83;20939;-65
2021/09/17 19:30:51;;;;;;;1.20;0.98;;;;;;;16.72;80.59;99909.11;2863069;83;20931;-65
2021/09/17 19:34:53;;;;;;;1.35;0.82;;;;;;;16.66;81.18;99916.83;2862508;83;20971;-64
2021/09/17 19:38:55;;;;;;;2.37;0.90;;;;;;;16.56;81.88;99911.67;2863126;83;20939;-65
2021/09/17 19:42:57;;;;;;;5.03;1.55;;;;;;;16.51;82.25;99918.59;2862986;83;20966;-64
2021/09/17 19:47:00;;;;;;;1.57;1.15;;;;;;;16.48;82.43;99914.89;2863016;83;20955;-64
2021/09/17 19:51:02;;;;;;;3.30;1.67;;;;;;;16.45;82.81;99921.95;2824703;83;20990;-64
2021/09/17 19:55:06;;;;;;;1.40;1.30;;;;;;;16.45;83.41;99914.76;2814996;84;20994;-64